createdAt,value
2019-02-15T00:01:40.892Z,3.63
2019-02-15T00:06:44.195Z,4.30
2019-02-15T00:11:47.433Z,4.17
2019-02-15T00:16:50.887Z,3.20
2019-02-15T00:21:54.577Z,5.03
2019-02-15T00:26:57.837Z,2.80
2019-02-15T00:32:01.181Z,5.55
2019-02-15T00:37:04.576Z,3.50
2019-02-15T00:42:07.887Z,3.87
2019-02-15T00:47:21.329Z,3.87
2019-02-15T00:54:30.906Z,4.10
2019-02-15T00:59:40.274Z,5.13
2019-02-15T01:05:04.601Z,5.97
2019-02-15T01:10:17.041Z,3.30
2019-02-15T01:15:20.268Z,2.63
2019-02-15T01:20:23.760Z,2.83
2019-02-15T01:25:27.022Z,4.33
2019-02-15T01:32:37.701Z,3.80
2019-02-15T01:37:50.086Z,2.97
2019-02-15T01:42:58.726Z,2.80
2019-02-15T01:48:02.048Z,3.13
2019-02-15T01:53:05.407Z,4.42
2019-02-15T01:58:08.629Z,3.23
2019-02-15T02:03:11.986Z,4.33
2019-02-15T02:08:18.598Z,3.43
2019-02-15T02:13:21.885Z,4.83
2019-02-15T02:18:25.228Z,3.00
2019-02-15T02:23:32.564Z,3.57
2019-02-15T02:28:35.836Z,4.60
2019-02-15T02:33:39.167Z,2.87
2019-02-15T02:38:42.525Z,4.33
2019-02-15T02:43:45.839Z,4.33
2019-02-15T02:48:49.128Z,4.30
2019-02-15T02:53:52.431Z,3.42
2019-02-15T02:58:55.662Z,4.47
2019-02-15T03:03:58.916Z,5.03
2019-02-15T03:09:02.138Z,4.03
2019-02-15T03:14:11.318Z,4.22
2019-02-15T03:19:08.759Z,3.80
2019-02-15T03:24:12.146Z,3.10
2019-02-15T03:29:15.448Z,2.72
2019-02-15T03:34:18.716Z,4.23
2019-02-15T03:39:29.086Z,3.43
2019-02-15T03:44:32.405Z,3.17
2019-02-15T03:49:35.634Z,2.77
2019-02-15T03:54:40.155Z,3.70
2019-02-15T03:59:43.372Z,3.50
2019-02-15T04:04:46.619Z,3.07
2019-02-15T04:09:52.709Z,2.97
2019-02-15T04:14:56.113Z,3.17
2019-02-15T04:19:59.398Z,3.10
2019-02-15T04:25:02.713Z,2.90
2019-02-15T04:30:07.145Z,2.30
2019-02-15T04:35:10.378Z,4.13
2019-02-15T04:40:13.661Z,3.03
2019-02-15T04:45:16.894Z,4.90
2019-02-15T04:50:20.178Z,3.97
2019-02-15T04:55:23.487Z,3.37
2019-02-15T05:00:26.845Z,3.90
2019-02-15T05:05:30.107Z,3.10
2019-02-15T05:10:34.357Z,3.23
2019-02-15T05:15:37.729Z,3.10
2019-02-15T05:20:42.036Z,4.27
2019-02-15T05:25:45.235Z,3.97
2019-02-15T05:30:48.590Z,3.73
2019-02-15T05:35:51.804Z,4.07
2019-02-15T05:40:55.109Z,4.53
2019-02-15T05:45:58.503Z,3.70
2019-02-15T05:51:01.893Z,4.40
2019-02-15T05:56:05.129Z,4.23
2019-02-15T06:01:08.371Z,3.53
2019-02-15T06:06:11.710Z,5.30
2019-02-15T06:11:14.927Z,3.87
2019-02-15T06:16:18.320Z,3.33
2019-02-15T06:21:21.547Z,3.63
2019-02-15T06:26:25.617Z,3.43
2019-02-15T06:31:28.899Z,3.73
2019-02-15T06:36:36.105Z,2.87
2019-02-15T06:41:39.322Z,3.90
2019-02-15T06:46:42.614Z,3.23
2019-02-15T06:51:58.593Z,1.90
2019-02-15T06:57:02.829Z,3.30
2019-02-15T07:02:14.104Z,4.60
2019-02-15T07:07:17.350Z,4.00
2019-02-15T07:12:20.702Z,2.63
2019-02-15T07:17:24.144Z,5.23
2019-02-15T07:22:27.415Z,4.53
2019-02-15T07:27:30.678Z,3.90
2019-02-15T07:32:33.991Z,5.37
2019-02-15T07:37:37.291Z,5.50
2019-02-15T07:42:40.614Z,6.43
2019-02-15T07:47:43.910Z,5.43
2019-02-15T07:52:47.265Z,7.37
2019-02-15T07:57:50.606Z,6.40
2019-02-15T08:02:53.843Z,6.90
2019-02-15T08:07:57.256Z,7.15
2019-02-15T08:13:00.614Z,7.53
2019-02-15T08:18:03.842Z,8.07
2019-02-15T08:23:07.113Z,6.10
2019-02-15T08:28:10.398Z,4.30
2019-02-15T08:33:13.739Z,4.30
2019-02-15T08:38:17.058Z,5.23
2019-02-15T08:43:20.396Z,6.03
2019-02-15T08:48:23.736Z,8.63
2019-02-15T08:53:27.091Z,5.87
2019-02-15T08:58:30.322Z,5.47
2019-02-15T09:03:33.525Z,6.00
2019-02-15T09:08:36.756Z,5.63
2019-02-15T09:13:40.037Z,6.53
2019-02-15T09:18:43.361Z,7.07
2019-02-15T09:23:46.721Z,6.63
2019-02-15T09:28:55.954Z,7.87
2019-02-15T09:33:59.209Z,6.07
2019-02-15T09:39:02.590Z,7.40
2019-02-15T09:44:05.833Z,5.83
2019-02-15T09:49:09.141Z,6.47
2019-02-15T09:54:12.337Z,7.10
2019-02-15T09:59:15.554Z,8.57
2019-02-15T10:04:18.850Z,7.20
2019-02-15T10:09:22.237Z,6.53
2019-02-15T10:14:25.444Z,7.23
2019-02-15T10:19:28.743Z,6.03
2019-02-15T10:24:32.070Z,6.17
2019-02-15T10:29:35.408Z,5.57
2019-02-15T10:34:38.721Z,6.87
2019-02-15T10:39:41.926Z,6.00
2019-02-15T10:44:45.244Z,6.93
2019-02-15T10:49:48.445Z,5.27
2019-02-15T10:54:51.731Z,5.13
2019-02-15T10:59:55.054Z,5.63
2019-02-15T11:04:58.560Z,5.80
2019-02-15T11:10:01.925Z,6.23
2019-02-15T11:15:05.705Z,6.17
2019-02-15T11:20:10.317Z,7.20
2019-02-15T11:25:13.641Z,7.67
2019-02-15T11:30:16.960Z,7.40
2019-02-15T11:35:20.336Z,7.53
2019-02-15T11:40:23.620Z,8.60
2019-02-15T11:45:26.980Z,7.40
2019-02-15T11:50:33.458Z,7.80
2019-02-15T11:55:36.771Z,7.63
2019-02-15T12:00:40.122Z,8.87
2019-02-15T12:05:43.430Z,9.13
2019-02-15T12:10:46.737Z,10.28
2019-02-15T12:15:50.001Z,9.20
2019-02-15T12:20:53.321Z,10.23
2019-02-15T12:25:56.619Z,8.43
2019-02-15T12:30:59.937Z,7.60
2019-02-15T12:36:03.437Z,7.83
2019-02-15T12:41:06.666Z,5.80
2019-02-15T12:46:09.885Z,6.43
2019-02-15T12:51:13.297Z,7.20
2019-02-15T12:56:16.683Z,6.73
2019-02-15T13:01:20.004Z,7.13
2019-02-15T13:06:28.722Z,6.50
2019-02-15T13:11:26.829Z,6.90
2019-02-15T13:16:30.272Z,4.47
2019-02-15T13:21:33.556Z,4.73
2019-02-15T13:26:36.807Z,3.90
2019-02-15T13:31:40.421Z,3.83
2019-02-15T13:36:43.801Z,5.20
2019-02-15T13:41:47.199Z,4.20
2019-02-15T13:46:50.510Z,4.37
2019-02-15T13:51:53.881Z,4.27
2019-02-15T13:56:57.354Z,3.63
2019-02-15T14:02:00.620Z,2.27
2019-02-15T14:07:13.676Z,1.23
2019-02-15T14:12:16.962Z,1.97
2019-02-15T14:17:20.278Z,3.10
2019-02-15T14:22:23.620Z,2.80
2019-02-15T14:27:26.833Z,2.60
2019-02-15T14:32:30.085Z,3.93
2019-02-15T14:37:33.376Z,3.23
2019-02-15T14:42:36.678Z,3.77
2019-02-15T14:47:39.973Z,3.87
2019-02-15T14:52:43.314Z,4.57
2019-02-15T14:57:47.074Z,4.27
2019-02-15T15:02:50.257Z,3.70
2019-02-15T15:07:53.566Z,4.13
2019-02-15T15:12:56.864Z,3.70
2019-02-15T15:18:10.701Z,3.80
2019-02-15T15:23:03.482Z,4.53
2019-02-15T15:28:06.723Z,4.77
2019-02-15T15:33:10.149Z,5.07
2019-02-15T15:38:13.533Z,5.17
2019-02-15T15:43:16.844Z,4.08
2019-02-15T15:48:22.890Z,3.67
2019-02-15T15:53:24.232Z,3.57
2019-02-15T15:58:27.555Z,4.13
2019-02-15T16:03:30.823Z,3.72
2019-02-15T16:08:34.196Z,3.53
2019-02-15T16:13:37.962Z,3.67
2019-02-15T16:18:41.227Z,4.10
2019-02-15T16:23:45.521Z,4.17
2019-02-15T16:28:48.905Z,6.08
2019-02-15T16:33:52.286Z,5.23
2019-02-15T16:38:55.660Z,3.77
2019-02-15T16:43:58.918Z,3.55
2019-02-15T16:49:02.288Z,3.37
2019-02-15T16:54:05.549Z,3.77
2019-02-15T16:59:08.803Z,2.30
2019-02-15T17:04:12.106Z,2.63
2019-02-15T17:09:17.484Z,3.10
2019-02-15T17:14:20.777Z,3.60
2019-02-15T17:19:24.081Z,3.93
2019-02-15T17:24:27.333Z,3.80
2019-02-15T17:29:30.650Z,4.60
2019-02-15T17:34:33.889Z,4.67
2019-02-15T17:39:37.177Z,4.33
2019-02-15T17:44:40.474Z,5.07
2019-02-15T17:49:43.805Z,3.13
2019-02-15T17:54:47.053Z,2.97
2019-02-15T17:59:50.303Z,4.80
2019-02-15T18:04:54.166Z,4.50
2019-02-15T18:09:58.361Z,3.33
2019-02-15T18:15:01.654Z,3.67
2019-02-15T18:26:48.379Z,5.17
2019-02-15T18:31:51.964Z,4.30
2019-02-15T18:36:57.082Z,5.93
2019-02-15T18:42:00.655Z,5.07
2019-02-15T18:47:04.402Z,4.85
2019-02-15T18:52:07.998Z,6.33
2019-02-15T18:57:11.678Z,6.50
2019-02-15T19:02:15.793Z,4.70
2019-02-15T19:07:19.306Z,4.55
2019-02-15T19:12:22.930Z,4.90
2019-02-15T19:17:27.397Z,5.33
2019-02-15T19:22:30.890Z,5.20
2019-02-15T19:27:34.508Z,3.83
2019-02-15T19:32:38.114Z,3.47
2019-02-15T19:37:41.885Z,4.43
2019-02-15T19:42:46.854Z,4.07
2019-02-15T19:47:50.464Z,4.90
2019-02-15T19:52:54.173Z,4.63
2019-02-15T19:57:57.820Z,4.23
2019-02-15T20:03:01.299Z,4.73
2019-02-15T20:08:04.965Z,4.67
2019-02-15T20:13:08.673Z,5.17
2019-02-15T20:18:12.171Z,4.17
2019-02-15T20:23:15.587Z,4.20
2019-02-15T20:28:19.013Z,3.93
2019-02-15T20:33:23.348Z,3.90
2019-02-15T20:38:27.140Z,4.83
2019-02-15T20:43:30.927Z,4.67
2019-02-15T20:48:34.548Z,4.63
2019-02-15T20:53:38.399Z,4.47
2019-02-15T20:58:42.476Z,4.43
2019-02-15T21:03:45.871Z,4.40
2019-02-15T21:08:49.420Z,4.43
2019-02-15T21:13:52.866Z,4.93
2019-02-15T21:18:56.948Z,4.77
2019-02-15T21:24:00.623Z,4.67
2019-02-15T21:29:04.066Z,3.60
2019-02-15T21:34:07.972Z,3.33
2019-02-15T21:39:11.403Z,3.80
2019-02-15T21:44:14.916Z,3.00
2019-02-15T21:49:18.462Z,3.07
2019-02-15T21:54:22.967Z,3.67
2019-02-15T21:59:26.362Z,3.60
2019-02-15T22:04:29.823Z,4.20
2019-02-15T22:09:33.211Z,4.50
2019-02-15T22:14:36.791Z,4.10
2019-02-15T22:19:40.431Z,5.47
2019-02-15T22:24:44.009Z,5.53
2019-02-15T22:29:47.595Z,5.73
2019-02-15T22:34:51.015Z,5.75
2019-02-15T22:39:56.576Z,6.10
2019-02-15T22:44:59.935Z,5.70
2019-02-15T22:50:03.463Z,6.90
2019-02-15T22:55:06.829Z,4.10
2019-02-15T23:00:13.338Z,3.37
2019-02-15T23:05:16.735Z,4.13
2019-02-15T23:10:20.244Z,3.87
2019-02-15T23:15:23.725Z,4.33
2019-02-15T23:20:27.114Z,4.72
2019-02-15T23:25:30.521Z,4.37
2019-02-15T23:30:33.923Z,4.10
2019-02-15T23:35:37.283Z,4.27
2019-02-15T23:40:40.802Z,3.60
2019-02-15T23:45:44.996Z,3.77
2019-02-15T23:50:54.358Z,3.13
2019-02-15T23:55:51.165Z,3.20
